createdAt,value
2022-11-20T00:00:36.840Z,-0.36
2022-11-20T00:01:36.890Z,-0.36
2022-11-20T00:02:36.879Z,-0.36
2022-11-20T00:03:36.914Z,-0.34
2022-11-20T00:04:36.937Z,-0.33
2022-11-20T00:05:36.988Z,-0.33
2022-11-20T00:06:36.998Z,-0.34
2022-11-20T00:07:37.077Z,-0.36
2022-11-20T00:08:37.064Z,-0.38
2022-11-20T00:09:37.087Z,-0.39
2022-11-20T00:10:37.115Z,-0.4
2022-11-20T00:11:37.168Z,-0.39
2022-11-20T00:12:37.187Z,-0.41
2022-11-20T00:13:37.220Z,-0.41
2022-11-20T00:14:37.255Z,-0.41
2022-11-20T00:15:37.286Z,-0.39
2022-11-20T00:16:37.338Z,-0.39
2022-11-20T00:17:37.355Z,-0.41
2022-11-20T00:18:37.401Z,-0.39
2022-11-20T00:19:37.428Z,-0.43
2022-11-20T00:20:37.459Z,-0.43
2022-11-20T00:21:37.492Z,-0.45
2022-11-20T00:22:37.530Z,-0.44
2022-11-20T00:23:37.575Z,-0.44
2022-11-20T00:24:42.706Z,-0.43
2022-11-20T00:25:37.634Z,-0.43
2022-11-20T00:26:37.686Z,-0.44
2022-11-20T00:27:37.708Z,-0.42
2022-11-20T00:28:37.733Z,-0.42
2022-11-20T00:29:37.772Z,-0.41
2022-11-20T00:30:37.792Z,-0.42
2022-11-20T00:31:37.849Z,-0.44
2022-11-20T00:32:37.873Z,-0.42
2022-11-20T00:33:37.900Z,-0.44
2022-11-20T00:34:37.932Z,-0.44
2022-11-20T00:35:37.982Z,-0.45
2022-11-20T00:36:38.015Z,-0.42
2022-11-20T00:37:38.029Z,-0.44
2022-11-20T00:38:38.062Z,-0.41
2022-11-20T00:39:38.099Z,-0.41
2022-11-20T00:40:38.154Z,-0.39
2022-11-20T00:41:38.150Z,-0.41
2022-11-20T00:42:38.194Z,-0.39
2022-11-20T00:43:38.228Z,-0.4
2022-11-20T00:44:38.276Z,-0.39
2022-11-20T00:45:38.290Z,-0.43
2022-11-20T00:46:38.331Z,-0.39
2022-11-20T00:47:38.362Z,-0.42
2022-11-20T00:48:38.398Z,-0.43
2022-11-20T00:49:38.446Z,-0.43
2022-11-20T00:50:38.473Z,-0.42
2022-11-20T00:51:38.513Z,-0.41
2022-11-20T00:52:38.565Z,-0.41
2022-11-20T00:53:38.588Z,-0.41
2022-11-20T00:54:38.606Z,-0.47
2022-11-20T00:55:38.632Z,-0.48
2022-11-20T00:56:38.671Z,-0.46
2022-11-20T00:57:38.693Z,-0.46
2022-11-20T00:58:38.745Z,-0.48
2022-11-20T00:59:38.792Z,-0.43
2022-11-20T01:00:38.831Z,-0.42
2022-11-20T01:01:38.875Z,-0.42
2022-11-20T01:02:38.881Z,-0.45
2022-11-20T01:03:38.897Z,-0.46
2022-11-20T01:04:38.931Z,-0.46
2022-11-20T01:05:38.957Z,-0.46
2022-11-20T01:06:38.996Z,-0.48
2022-11-20T01:07:39.070Z,-0.48
2022-11-20T01:08:39.059Z,-0.48
2022-11-20T01:09:39.094Z,-0.49
2022-11-20T01:10:39.157Z,-0.49
2022-11-20T01:11:39.166Z,-0.48
2022-11-20T01:12:39.220Z,-0.49
2022-11-20T01:13:39.240Z,-0.48
2022-11-20T01:14:39.270Z,-0.48
2022-11-20T01:15:39.309Z,-0.47
2022-11-20T01:16:39.363Z,-0.49
2022-11-20T01:17:39.371Z,-0.47
2022-11-20T01:18:39.403Z,-0.47
2022-11-20T01:19:39.447Z,-0.47
2022-11-20T01:20:39.469Z,-0.48
2022-11-20T01:21:39.525Z,-0.5
2022-11-20T01:22:39.537Z,-0.5
2022-11-20T01:23:39.566Z,-0.48
2022-11-20T01:24:39.604Z,-0.48
2022-11-20T01:25:39.638Z,-0.48
2022-11-20T01:26:39.686Z,-0.48
2022-11-20T01:27:39.697Z,-0.48
2022-11-20T01:28:39.737Z,-0.49
2022-11-20T01:29:39.771Z,-0.49
2022-11-20T01:30:39.795Z,-0.52
2022-11-20T01:31:39.866Z,-0.52
2022-11-20T01:32:39.869Z,-0.51
2022-11-20T01:33:39.914Z,-0.49
2022-11-20T01:34:39.937Z,-0.5
2022-11-20T01:35:39.973Z,-0.5
2022-11-20T01:36:40.001Z,-0.51
2022-11-20T01:37:40.040Z,-0.5
2022-11-20T01:38:40.093Z,-0.52
2022-11-20T01:39:40.113Z,-0.53
2022-11-20T01:40:40.148Z,-0.52
2022-11-20T01:41:40.197Z,-0.54
2022-11-20T01:42:40.198Z,-0.53
2022-11-20T01:43:40.238Z,-0.57
2022-11-20T01:44:40.269Z,-0.57
2022-11-20T01:45:40.296Z,-0.57
2022-11-20T01:46:40.354Z,-0.57
2022-11-20T01:47:40.363Z,-0.59
2022-11-20T01:48:40.394Z,-0.62
2022-11-20T01:49:40.420Z,-0.62
2022-11-20T01:50:40.458Z,-0.61
2022-11-20T01:51:40.519Z,-0.62
2022-11-20T01:52:40.536Z,-0.61
2022-11-20T01:53:40.571Z,-0.62
2022-11-20T01:54:40.605Z,-0.62
2022-11-20T01:55:40.653Z,-0.64
2022-11-20T01:56:40.671Z,-0.64
2022-11-20T01:57:40.699Z,-0.63
2022-11-20T01:58:40.737Z,-0.65
2022-11-20T01:59:40.759Z,-0.68
2022-11-20T02:00:40.796Z,-0.68
2022-11-20T02:01:40.882Z,-0.68
2022-11-20T02:02:40.864Z,-0.68
2022-11-20T02:03:40.898Z,-0.68
2022-11-20T02:04:40.926Z,-0.68
2022-11-20T02:05:40.951Z,-0.68
2022-11-20T02:06:40.983Z,-0.7
2022-11-20T02:07:41.061Z,-0.69
2022-11-20T02:08:41.070Z,-0.69
2022-11-20T02:09:41.082Z,-0.69
2022-11-20T02:10:41.110Z,-0.68
2022-11-20T02:11:41.148Z,-0.69
2022-11-20T02:12:41.183Z,-0.7
2022-11-20T02:13:41.216Z,-0.69
2022-11-20T02:14:41.250Z,-0.69
2022-11-20T02:15:41.281Z,-0.74
2022-11-20T02:16:41.322Z,-0.76
2022-11-20T02:17:41.354Z,-0.76
2022-11-20T02:18:41.389Z,-0.76
2022-11-20T02:19:41.433Z,-0.74
2022-11-20T02:20:41.464Z,-0.77
2022-11-20T02:21:41.496Z,-0.77
2022-11-20T02:22:41.526Z,-0.76
2022-11-20T02:23:41.573Z,-0.76
2022-11-20T02:24:41.598Z,-0.78
2022-11-20T02:25:41.652Z,-0.78
2022-11-20T02:26:41.668Z,-0.81
2022-11-20T02:27:41.701Z,-0.81
2022-11-20T02:28:41.735Z,-0.82
2022-11-20T02:29:41.770Z,-0.82
2022-11-20T02:30:41.802Z,-0.84
2022-11-20T02:31:41.846Z,-0.84
2022-11-20T02:32:41.886Z,-0.84
2022-11-20T02:33:41.946Z,-0.84
2022-11-20T02:34:41.950Z,-0.83
2022-11-20T02:35:41.989Z,-0.84
2022-11-20T02:36:42.023Z,-0.84
2022-11-20T02:37:42.053Z,-0.84
2022-11-20T02:38:42.082Z,-0.85
2022-11-20T02:39:42.110Z,-0.84
2022-11-20T02:40:42.140Z,-0.89
2022-11-20T02:41:42.166Z,-0.87
2022-11-20T02:42:42.211Z,-0.87
2022-11-20T02:43:42.243Z,-0.88
2022-11-20T02:44:42.280Z,-0.88
2022-11-20T02:45:42.325Z,-0.93
2022-11-20T02:46:42.354Z,-0.93
2022-11-20T02:47:42.393Z,-0.88
2022-11-20T02:48:42.429Z,-0.88
2022-11-20T02:49:42.479Z,-0.89
2022-11-20T02:50:42.498Z,-0.89
2022-11-20T02:51:42.529Z,-0.89
2022-11-20T02:52:42.568Z,-0.89
2022-11-20T02:53:42.609Z,-0.89
2022-11-20T02:54:42.642Z,-0.91
2022-11-20T02:55:42.672Z,-0.9
2022-11-20T02:56:42.710Z,-0.91
2022-11-20T02:57:42.721Z,-0.89
2022-11-20T02:58:42.756Z,-0.83
2022-11-20T02:59:42.799Z,-0.84
2022-11-20T03:00:42.869Z,-0.84
2022-11-20T03:01:42.933Z,-0.84
2022-11-20T03:02:42.914Z,-0.84
2022-11-20T03:03:42.948Z,-0.83
2022-11-20T03:04:42.985Z,-0.83
2022-11-20T03:05:43.010Z,-0.84
2022-11-20T03:06:43.043Z,-0.83
2022-11-20T03:07:43.177Z,-0.8
2022-11-20T03:08:43.108Z,-0.81
2022-11-20T03:09:43.143Z,-0.78
2022-11-20T03:10:43.174Z,-0.76
2022-11-20T03:11:43.210Z,-0.76
2022-11-20T03:12:43.266Z,-0.81
2022-11-20T03:13:43.291Z,-0.8
2022-11-20T03:14:43.315Z,-0.8
2022-11-20T03:15:43.366Z,-0.8
2022-11-20T03:16:43.380Z,-0.8
2022-11-20T03:17:43.413Z,-0.8
2022-11-20T03:18:43.447Z,-0.82
2022-11-20T03:19:43.480Z,-0.81
2022-11-20T03:20:43.520Z,-0.81
2022-11-20T03:21:43.546Z,-0.8
2022-11-20T03:22:43.585Z,-0.78
2022-11-20T03:23:43.641Z,-0.8
2022-11-20T03:24:43.650Z,-0.78
2022-11-20T03:25:43.689Z,-0.78
2022-11-20T03:26:43.715Z,-0.78
2022-11-20T03:27:43.747Z,-0.79
2022-11-20T03:28:43.801Z,-0.79
2022-11-20T03:29:43.815Z,-0.79
2022-11-20T03:30:43.846Z,-0.79
2022-11-20T03:31:43.882Z,-0.79
2022-11-20T03:32:43.916Z,-0.8
2022-11-20T03:33:43.949Z,-0.75
2022-11-20T03:34:43.996Z,-0.75
2022-11-20T03:35:44.007Z,-0.75
2022-11-20T03:36:44.039Z,-0.76
2022-11-20T03:37:44.080Z,-0.8
2022-11-20T03:38:44.117Z,-0.8
2022-11-20T03:39:44.148Z,-0.79
2022-11-20T03:40:44.169Z,-0.74
2022-11-20T03:41:44.206Z,-0.75
2022-11-20T03:42:44.232Z,-0.74
2022-11-20T03:43:44.265Z,-0.75
2022-11-20T03:44:44.296Z,-0.75
2022-11-20T03:45:44.328Z,-0.75
2022-11-20T03:46:44.378Z,-0.75
2022-11-20T03:47:44.407Z,-0.75
2022-11-20T03:48:48.768Z,-0.72
2022-11-20T03:49:44.482Z,-0.72
2022-11-20T03:50:44.507Z,-0.74
2022-11-20T03:51:44.521Z,-0.75
2022-11-20T03:52:44.555Z,-0.74
2022-11-20T03:53:44.583Z,-0.75
2022-11-20T03:54:44.619Z,-0.72
2022-11-20T03:55:44.655Z,-0.76
2022-11-20T03:56:44.681Z,-0.75
2022-11-20T03:57:44.719Z,-0.75
2022-11-20T03:58:44.756Z,-0.75
2022-11-20T03:59:44.787Z,-0.77
2022-11-20T04:00:44.849Z,-0.74
2022-11-20T04:01:49.323Z,-0.76
2022-11-20T04:02:44.940Z,-0.76
2022-11-20T04:03:44.916Z,-0.81
2022-11-20T04:04:44.954Z,-0.76
2022-11-20T04:05:44.984Z,-0.77
2022-11-20T04:06:45.023Z,-0.77
2022-11-20T04:07:45.051Z,-0.77
2022-11-20T04:08:48.550Z,-0.76
2022-11-20T04:09:45.125Z,-0.76
2022-11-20T04:10:45.154Z,-0.75
2022-11-20T04:11:45.194Z,-0.76
2022-11-20T04:12:45.221Z,-0.75
2022-11-20T04:13:45.250Z,-0.75
2022-11-20T04:14:45.293Z,-0.75
2022-11-20T04:15:45.315Z,-0.75
2022-11-20T04:16:45.341Z,-0.75
2022-11-20T04:17:45.377Z,-0.75
2022-11-20T04:18:45.445Z,-0.75
2022-11-20T04:19:45.442Z,-0.75
2022-11-20T04:20:45.479Z,-0.75
2022-11-20T04:21:45.515Z,-0.75
2022-11-20T04:22:45.556Z,-0.74
2022-11-20T04:23:45.602Z,-0.72
2022-11-20T04:24:45.614Z,-0.72
2022-11-20T04:25:45.661Z,-0.71
2022-11-20T04:26:45.675Z,-0.71
2022-11-20T04:27:45.729Z,-0.72
2022-11-20T04:28:45.746Z,-0.7
2022-11-20T04:29:45.775Z,-0.68
2022-11-20T04:30:45.829Z,-0.68
2022-11-20T04:31:45.833Z,-0.69
2022-11-20T04:32:45.862Z,-0.64
2022-11-20T04:33:45.908Z,-0.64
2022-11-20T04:34:45.938Z,-0.64
2022-11-20T04:35:45.988Z,-0.64
2022-11-20T04:36:46.006Z,-0.64
2022-11-20T04:37:46.056Z,-0.65
2022-11-20T04:38:46.064Z,-0.65
2022-11-20T04:39:46.128Z,-0.64
2022-11-20T04:40:46.128Z,-0.69
2022-11-20T04:41:46.164Z,-0.69
2022-11-20T04:42:46.200Z,-0.69
2022-11-20T04:43:46.226Z,-0.69
2022-11-20T04:44:46.285Z,-0.69
2022-11-20T04:45:46.300Z,-0.67
2022-11-20T04:46:46.331Z,-0.67
2022-11-20T04:47:46.366Z,-0.67
2022-11-20T04:48:46.396Z,-0.66
2022-11-20T04:49:46.512Z,-0.67
2022-11-20T04:50:46.467Z,-0.66
2022-11-20T04:51:46.494Z,-0.67
2022-11-20T04:52:46.524Z,-0.67
2022-11-20T04:53:46.561Z,-0.67
2022-11-20T04:54:46.596Z,-0.66
2022-11-20T04:55:46.648Z,-0.67
2022-11-20T04:56:48.701Z,-0.66
2022-11-20T04:57:46.705Z,-0.67
2022-11-20T04:58:46.749Z,-0.66
2022-11-20T04:59:46.755Z,-0.66
2022-11-20T05:00:46.811Z,-0.66
2022-11-20T05:01:46.851Z,-0.65
2022-11-20T05:02:46.848Z,-0.66
2022-11-20T05:03:46.865Z,-0.66
2022-11-20T05:04:46.905Z,-0.67
2022-11-20T05:05:46.932Z,-0.67
2022-11-20T05:06:46.957Z,-0.66
2022-11-20T05:07:46.990Z,-0.66
2022-11-20T05:08:47.032Z,-0.67
2022-11-20T05:09:47.055Z,-0.66
2022-11-20T05:10:47.091Z,-0.66
2022-11-20T05:11:51.186Z,-0.67
2022-11-20T05:12:47.143Z,-0.65
2022-11-20T05:13:47.190Z,-0.63
2022-11-20T05:14:47.216Z,-0.62
2022-11-20T05:15:47.254Z,-0.62
2022-11-20T05:16:47.284Z,-0.62
2022-11-20T05:17:47.329Z,-0.62
2022-11-20T05:18:47.367Z,-0.62
2022-11-20T05:19:50.627Z,-0.61
2022-11-20T05:20:47.433Z,-0.62
2022-11-20T05:21:47.430Z,-0.61
2022-11-20T05:22:47.464Z,-0.61
2022-11-20T05:23:47.518Z,-0.61
2022-11-20T05:24:47.530Z,-0.61
2022-11-20T05:25:47.561Z,-0.61
2022-11-20T05:26:47.614Z,-0.62
2022-11-20T05:27:47.624Z,-0.61
2022-11-20T05:28:47.654Z,-0.59
2022-11-20T05:29:47.682Z,-0.59
2022-11-20T05:30:47.709Z,-0.55
2022-11-20T05:31:47.736Z,-0.56
2022-11-20T05:32:47.776Z,-0.55
2022-11-20T05:33:47.812Z,-0.55
2022-11-20T05:34:47.835Z,-0.56
2022-11-20T05:35:47.866Z,-0.53
2022-11-20T05:36:47.902Z,-0.53
2022-11-20T05:37:47.962Z,-0.54
2022-11-20T05:38:50.596Z,-0.53
2022-11-20T05:39:47.995Z,-0.53
2022-11-20T05:40:48.019Z,-0.53
2022-11-20T05:41:48.055Z,-0.58
2022-11-20T05:42:48.078Z,-0.59
2022-11-20T05:43:48.118Z,-0.59
2022-11-20T05:44:48.153Z,-0.59
2022-11-20T05:45:48.184Z,-0.58
2022-11-20T05:46:48.217Z,-0.58
2022-11-20T05:47:48.244Z,-0.58
2022-11-20T05:48:48.279Z,-0.57
2022-11-20T05:49:48.329Z,-0.54
2022-11-20T05:50:48.336Z,-0.53
2022-11-20T05:51:48.374Z,-0.53
2022-11-20T05:52:48.409Z,-0.53
2022-11-20T05:53:48.897Z,-0.53
2022-11-20T05:54:48.473Z,-0.55
2022-11-20T05:55:48.502Z,-0.55
2022-11-20T05:56:48.535Z,-0.52
2022-11-20T05:57:48.575Z,-0.57
2022-11-20T05:58:48.604Z,-0.57
2022-11-20T05:59:48.623Z,-0.59
2022-11-20T06:00:48.656Z,-0.53
2022-11-20T06:01:48.692Z,-0.54
2022-11-20T06:02:48.774Z,-0.52
2022-11-20T06:03:48.933Z,-0.54
2022-11-20T06:04:48.766Z,-0.51
2022-11-20T06:05:48.802Z,-0.53
2022-11-20T06:06:48.830Z,-0.54
2022-11-20T06:07:48.863Z,-0.54
2022-11-20T06:08:48.893Z,-0.53
2022-11-20T06:09:48.930Z,-0.53
2022-11-20T06:10:48.964Z,-0.53
2022-11-20T06:11:48.996Z,-0.53
2022-11-20T06:12:49.021Z,-0.53
2022-11-20T06:13:49.051Z,-0.53
2022-11-20T06:14:49.080Z,-0.53
2022-11-20T06:15:49.102Z,-0.52
2022-11-20T06:16:49.128Z,-0.52
2022-11-20T06:17:49.166Z,-0.52
2022-11-20T06:18:49.187Z,-0.52
2022-11-20T06:19:49.226Z,-0.52
2022-11-20T06:20:49.257Z,-0.52
2022-11-20T06:21:49.283Z,-0.52
2022-11-20T06:22:49.311Z,-0.52
2022-11-20T06:23:49.343Z,-0.51
2022-11-20T06:24:49.380Z,-0.51
2022-11-20T06:25:49.406Z,-0.51
2022-11-20T06:26:49.443Z,-0.51
2022-11-20T06:27:49.470Z,-0.5
2022-11-20T06:28:49.499Z,-0.5
2022-11-20T06:29:49.529Z,-0.5
2022-11-20T06:30:49.563Z,-0.5
2022-11-20T06:31:49.586Z,-0.51
2022-11-20T06:32:49.610Z,-0.5
2022-11-20T06:33:49.643Z,-0.5
2022-11-20T06:34:49.669Z,-0.51
2022-11-20T06:35:49.705Z,-0.51
2022-11-20T06:36:49.739Z,-0.5
2022-11-20T06:37:49.773Z,-0.51
2022-11-20T06:38:49.796Z,-0.51
2022-11-20T06:39:49.829Z,-0.5
2022-11-20T06:40:49.880Z,-0.51
2022-11-20T06:41:52.229Z,-0.51
2022-11-20T06:42:49.918Z,-0.5
2022-11-20T06:43:49.966Z,-0.5
2022-11-20T06:44:49.990Z,-0.51
2022-11-20T06:45:50.016Z,-0.5
2022-11-20T06:46:50.049Z,-0.51
2022-11-20T06:47:50.072Z,-0.51
2022-11-20T06:48:50.112Z,-0.51
2022-11-20T06:49:50.136Z,-0.51
2022-11-20T06:50:50.162Z,-0.51
2022-11-20T06:51:50.196Z,-0.51
2022-11-20T06:52:50.235Z,-0.52
2022-11-20T06:53:50.259Z,-0.52
2022-11-20T06:54:50.288Z,-0.51
2022-11-20T06:55:50.330Z,-0.5
2022-11-20T06:56:50.363Z,-0.5
2022-11-20T06:57:54.722Z,-0.49
2022-11-20T06:58:50.425Z,-0.5
2022-11-20T06:59:50.451Z,-0.5
2022-11-20T07:00:50.575Z,-0.5
2022-11-20T07:01:50.515Z,-0.5
2022-11-20T07:02:50.565Z,-0.49
2022-11-20T07:03:54.279Z,-0.46
2022-11-20T07:04:50.615Z,-0.45
2022-11-20T07:05:50.638Z,-0.42
2022-11-20T07:06:50.675Z,-0.38
2022-11-20T07:07:50.725Z,-0.39
2022-11-20T07:08:50.741Z,-0.38
2022-11-20T07:09:50.775Z,-0.39
2022-11-20T07:10:50.810Z,-0.38
2022-11-20T07:11:50.836Z,-0.38
2022-11-20T07:12:50.855Z,-0.39
2022-11-20T07:13:50.887Z,-0.39
2022-11-20T07:14:50.908Z,-0.37
2022-11-20T07:15:50.936Z,-0.38
2022-11-20T07:16:50.967Z,-0.41
2022-11-20T07:17:51.013Z,-0.39
2022-11-20T07:18:51.279Z,-0.39
2022-11-20T07:19:51.057Z,-0.41
2022-11-20T07:20:51.083Z,-0.41
2022-11-20T07:21:51.110Z,-0.42
2022-11-20T07:22:51.150Z,-0.42
2022-11-20T07:23:51.175Z,-0.4
2022-11-20T07:24:51.229Z,-0.42
2022-11-20T07:25:51.232Z,-0.42
2022-11-20T07:26:51.268Z,-0.42
2022-11-20T07:27:51.297Z,-0.41
2022-11-20T07:28:51.334Z,-0.4
2022-11-20T07:29:51.383Z,-0.43
2022-11-20T07:30:51.398Z,-0.43
2022-11-20T07:31:51.434Z,-0.42
2022-11-20T07:32:51.476Z,-0.39
2022-11-20T07:33:51.489Z,-0.37
2022-11-20T07:34:51.514Z,-0.38
2022-11-20T07:35:51.577Z,-0.38
2022-11-20T07:36:51.579Z,-0.37
2022-11-20T07:37:51.622Z,-0.38
2022-11-20T07:38:51.652Z,-0.38
2022-11-20T07:39:51.689Z,-0.38
2022-11-20T07:40:51.747Z,-0.38
2022-11-20T07:41:51.762Z,-0.38
2022-11-20T07:42:51.809Z,-0.39
2022-11-20T07:43:51.810Z,-0.39
2022-11-20T07:44:51.871Z,-0.39
2022-11-20T07:45:51.872Z,-0.39
2022-11-20T07:46:51.903Z,-0.37
2022-11-20T07:47:51.940Z,-0.38
2022-11-20T07:48:51.970Z,-0.38
2022-11-20T07:49:52.003Z,-0.38
2022-11-20T07:50:52.031Z,-0.39
2022-11-20T07:51:52.149Z,-0.39
2022-11-20T07:52:52.098Z,-0.39
2022-11-20T07:53:52.136Z,-0.43
2022-11-20T07:54:52.162Z,-0.43
2022-11-20T07:55:52.191Z,-0.4
2022-11-20T07:56:52.232Z,-0.41
2022-11-20T07:57:52.260Z,-0.41
2022-11-20T07:58:52.289Z,-0.41
2022-11-20T07:59:52.315Z,-0.4
2022-11-20T08:00:52.418Z,-0.41
2022-11-20T08:01:52.386Z,-0.4
2022-11-20T08:02:52.412Z,-0.41
2022-11-20T08:03:52.442Z,-0.41
2022-11-20T08:04:52.479Z,-0.39
2022-11-20T08:05:52.509Z,-0.39
2022-11-20T08:06:52.532Z,-0.4
2022-11-20T08:07:52.558Z,-0.4
2022-11-20T08:08:52.597Z,-0.4
2022-11-20T08:09:52.632Z,-0.38
2022-11-20T08:10:52.664Z,-0.37
2022-11-20T08:11:52.694Z,-0.38
2022-11-20T08:12:52.725Z,-0.38
2022-11-20T08:13:52.759Z,-0.38
2022-11-20T08:14:52.786Z,-0.36
2022-11-20T08:15:52.819Z,-0.35
2022-11-20T08:16:52.846Z,-0.36
2022-11-20T08:18:23.239Z,-0.36
2022-11-20T08:18:52.910Z,-0.36
2022-11-20T08:19:52.935Z,-0.38
2022-11-20T08:20:52.958Z,-0.35
2022-11-20T08:21:52.995Z,-0.35
2022-11-20T08:22:53.021Z,-0.35
2022-11-20T08:23:53.055Z,-0.33
2022-11-20T08:24:53.076Z,-0.32
2022-11-20T08:25:53.105Z,-0.32
2022-11-20T08:26:53.145Z,-0.32
2022-11-20T08:27:57.818Z,-0.32
2022-11-20T08:28:53.211Z,-0.35
2022-11-20T08:29:53.241Z,-0.38
2022-11-20T08:30:53.273Z,-0.38
2022-11-20T08:31:53.304Z,-0.36
2022-11-20T08:32:53.340Z,-0.33
2022-11-20T08:33:53.385Z,-0.33
2022-11-20T08:34:53.410Z,-0.31
2022-11-20T08:35:53.452Z,-0.3
2022-11-20T08:36:53.487Z,-0.3
2022-11-20T08:37:53.514Z,-0.3
2022-11-20T08:38:53.545Z,-0.25
2022-11-20T08:39:53.587Z,-0.25
2022-11-20T08:40:53.618Z,-0.23
2022-11-20T08:41:53.655Z,-0.24
2022-11-20T08:42:53.687Z,-0.21
2022-11-20T08:43:53.711Z,-0.2
2022-11-20T08:44:53.750Z,-0.2
2022-11-20T08:45:53.788Z,-0.2
2022-11-20T08:46:53.813Z,-0.2
2022-11-20T08:47:53.872Z,-0.16
2022-11-20T08:48:53.893Z,-0.15
2022-11-20T08:49:53.920Z,-0.16
2022-11-20T08:50:53.968Z,-0.16
2022-11-20T08:51:53.994Z,-0.09
2022-11-20T08:52:54.054Z,-0.12
2022-11-20T08:53:54.061Z,-0.12
2022-11-20T08:54:54.092Z,-0.08
2022-11-20T08:55:54.111Z,-0.04
2022-11-20T08:56:54.145Z,-0.05
2022-11-20T08:57:54.175Z,-0.06
2022-11-20T08:59:17.897Z,-0.04
2022-11-20T09:00:54.319Z,-0.04
2022-11-20T09:01:54.286Z,-0.05
2022-11-20T09:02:54.327Z,-0.04
2022-11-20T09:03:54.360Z,-0.02
2022-11-20T09:04:54.372Z,-0.05
2022-11-20T09:05:54.399Z,-0.03
2022-11-20T09:06:54.433Z,0.02
2022-11-20T09:07:54.467Z,0.01
2022-11-20T09:08:54.502Z,-0.01
2022-11-20T09:10:22.160Z,-0.01
2022-11-20T09:10:54.550Z,-0.01
2022-11-20T09:11:54.587Z,-0.02
2022-11-20T09:12:54.628Z,0.01
2022-11-20T09:14:06.673Z,0.01
2022-11-20T09:15:06.706Z,-0.01
2022-11-20T09:16:06.727Z,-0.01
2022-11-20T09:17:26.765Z,-0.01
2022-11-20T09:18:26.790Z,-0.01
2022-11-20T09:19:36.100Z,-0.01
2022-11-20T09:20:26.860Z,0.02
2022-11-20T09:21:26.949Z,0.02
2022-11-20T09:22:26.919Z,0.06
2022-11-20T09:23:26.946Z,0.06
2022-11-20T09:24:26.972Z,0.1
2022-11-20T09:25:27.004Z,0.12
2022-11-20T09:26:27.046Z,0.12
2022-11-20T09:27:27.069Z,0.11
2022-11-20T09:28:27.100Z,0.1
2022-11-20T09:29:27.129Z,0.12
2022-11-20T09:30:27.160Z,0.12
2022-11-20T09:31:27.196Z,0.13
2022-11-20T09:32:27.219Z,0.13
2022-11-20T09:33:27.247Z,0.17
2022-11-20T09:34:27.284Z,0.16
2022-11-20T09:35:27.303Z,0.17
2022-11-20T09:36:27.336Z,0.17
2022-11-20T09:37:27.371Z,0.19
2022-11-20T09:38:27.396Z,0.2
2022-11-20T09:39:27.432Z,0.19
2022-11-20T09:40:27.462Z,0.22
2022-11-20T09:41:27.490Z,0.21
2022-11-20T09:42:27.517Z,0.21
2022-11-20T09:43:29.982Z,0.21
2022-11-20T09:44:27.571Z,0.21
2022-11-20T09:45:27.607Z,0.25
2022-11-20T09:46:27.635Z,0.24
2022-11-20T09:47:27.666Z,0.25
2022-11-20T09:48:27.693Z,0.26
2022-11-20T09:49:32.333Z,0.27
2022-11-20T09:50:27.743Z,0.25
2022-11-20T09:51:27.782Z,0.25
2022-11-20T09:52:27.808Z,0.25
2022-11-20T09:53:27.840Z,0.23
2022-11-20T09:54:27.869Z,0.23
2022-11-20T09:55:27.894Z,0.22
2022-11-20T09:56:27.936Z,0.21
2022-11-20T09:57:27.977Z,0.21
2022-11-20T09:58:27.982Z,0.21
2022-11-20T09:59:28.013Z,0.21
2022-11-20T10:00:28.038Z,0.24
2022-11-20T10:01:28.164Z,0.29
2022-11-20T10:02:28.095Z,0.34
2022-11-20T10:03:28.129Z,0.34
2022-11-20T10:04:28.164Z,0.36
2022-11-20T10:05:28.180Z,0.36
2022-11-20T10:06:28.208Z,0.37
2022-11-20T10:07:32.547Z,0.38
2022-11-20T10:08:28.276Z,0.37
2022-11-20T10:09:28.315Z,0.36
2022-11-20T10:10:28.360Z,0.36
2022-11-20T10:11:28.373Z,0.36
2022-11-20T10:12:28.403Z,0.35
2022-11-20T10:13:28.427Z,0.34
2022-11-20T10:14:28.459Z,0.33
2022-11-20T10:15:29.859Z,0.34
2022-11-20T10:16:28.523Z,0.34
2022-11-20T10:17:28.552Z,0.33
2022-11-20T10:18:28.593Z,0.34
2022-11-20T10:19:28.625Z,0.33
2022-11-20T10:20:28.655Z,0.36
2022-11-20T10:21:28.687Z,0.37
2022-11-20T10:22:28.723Z,0.36
2022-11-20T10:23:28.749Z,0.38
2022-11-20T10:24:28.777Z,0.4
2022-11-20T10:25:28.810Z,0.4
2022-11-20T10:26:28.835Z,0.39
2022-11-20T10:27:28.861Z,0.4
2022-11-20T10:28:28.895Z,0.4
2022-11-20T10:29:28.927Z,0.39
2022-11-20T10:30:28.955Z,0.38
2022-11-20T10:31:28.994Z,0.38
2022-11-20T10:32:29.027Z,0.38
2022-11-20T10:33:34.880Z,0.39
2022-11-20T10:34:29.093Z,0.39
2022-11-20T10:35:29.122Z,0.38
2022-11-20T10:36:29.153Z,0.39
2022-11-20T10:37:29.184Z,0.39
2022-11-20T10:38:29.206Z,0.39
2022-11-20T10:39:29.233Z,0.38
2022-11-20T10:40:29.268Z,0.39
2022-11-20T10:41:31.936Z,0.38
2022-11-20T10:42:29.323Z,0.35
2022-11-20T10:43:29.357Z,0.35
2022-11-20T10:44:29.415Z,0.35
2022-11-20T10:45:29.418Z,0.35
2022-11-20T10:46:29.447Z,0.4
2022-11-20T10:47:29.475Z,0.42
2022-11-20T10:48:29.514Z,0.4
2022-11-20T10:49:29.563Z,0.42
2022-11-20T10:50:29.575Z,0.41
2022-11-20T10:51:29.607Z,0.48
2022-11-20T10:52:29.646Z,0.5
2022-11-20T10:53:29.677Z,0.48
2022-11-20T10:54:29.702Z,0.53
2022-11-20T10:55:29.728Z,0.54
2022-11-20T10:56:29.751Z,0.51
2022-11-20T10:57:29.778Z,0.52
2022-11-20T10:58:29.815Z,0.54
2022-11-20T10:59:29.865Z,0.57
2022-11-20T11:00:29.883Z,0.58
2022-11-20T11:01:29.938Z,0.58
2022-11-20T11:02:29.943Z,0.63
2022-11-20T11:03:29.968Z,0.67
2022-11-20T11:04:30.004Z,0.66
2022-11-20T11:05:30.028Z,0.66
2022-11-20T11:06:30.066Z,0.65
2022-11-20T11:07:30.134Z,0.65
2022-11-20T11:08:30.125Z,0.69
2022-11-20T11:09:30.145Z,0.7
2022-11-20T11:10:30.177Z,0.7
2022-11-20T11:11:30.204Z,0.72
2022-11-20T11:12:30.241Z,0.72
2022-11-20T11:13:30.266Z,0.72
2022-11-20T11:14:30.290Z,0.72
2022-11-20T11:15:30.325Z,0.71
2022-11-20T11:16:30.345Z,0.67
2022-11-20T11:17:30.367Z,0.66
2022-11-20T11:18:30.408Z,0.66
2022-11-20T11:19:30.435Z,0.66
2022-11-20T11:20:30.459Z,0.68
2022-11-20T11:21:30.483Z,0.66
2022-11-20T11:22:30.511Z,0.66
2022-11-20T11:23:30.540Z,0.68
2022-11-20T11:24:42.554Z,0.66
2022-11-20T11:25:30.603Z,0.66
2022-11-20T11:26:30.636Z,0.67
2022-11-20T11:27:30.658Z,0.65
2022-11-20T11:28:30.692Z,0.61
2022-11-20T11:29:30.728Z,0.58
2022-11-20T11:30:30.760Z,0.59
2022-11-20T11:31:30.794Z,0.64
2022-11-20T11:32:30.826Z,0.65
2022-11-20T11:33:30.854Z,0.63
2022-11-20T11:34:30.887Z,0.58
2022-11-20T11:35:30.919Z,0.57
2022-11-20T11:36:30.943Z,0.58
2022-11-20T11:37:30.978Z,0.59
2022-11-20T11:38:31.017Z,0.59
2022-11-20T11:39:31.051Z,0.58
2022-11-20T11:40:31.079Z,0.6
2022-11-20T11:41:31.142Z,0.61
2022-11-20T11:42:31.154Z,0.61
2022-11-20T11:43:35.281Z,0.6
2022-11-20T11:44:31.210Z,0.6
2022-11-20T11:45:31.244Z,0.61
2022-11-20T11:46:31.272Z,0.6
2022-11-20T11:47:31.303Z,0.61
2022-11-20T11:48:31.338Z,0.6
2022-11-20T11:49:31.379Z,0.66
2022-11-20T11:50:31.410Z,0.69
2022-11-20T11:51:31.435Z,0.7
2022-11-20T11:52:31.464Z,0.71
2022-11-20T11:53:31.498Z,0.7
2022-11-20T11:54:31.537Z,0.69
2022-11-20T11:55:31.569Z,0.72
2022-11-20T11:56:31.599Z,0.72
2022-11-20T11:57:31.621Z,0.67
2022-11-20T11:58:31.654Z,0.66
2022-11-20T11:59:31.705Z,0.7
2022-11-20T12:00:31.724Z,0.71
2022-11-20T12:01:32.936Z,0.77
2022-11-20T12:02:31.864Z,0.75
2022-11-20T12:03:31.829Z,0.75
2022-11-20T12:04:31.849Z,0.76
2022-11-20T12:05:31.883Z,0.74
2022-11-20T12:06:31.915Z,0.72
2022-11-20T12:07:46.146Z,0.68
2022-11-20T12:08:32.057Z,0.68
2022-11-20T12:09:32.019Z,0.7
2022-11-20T12:10:32.043Z,0.7
2022-11-20T12:11:32.073Z,0.68
2022-11-20T12:12:32.117Z,0.71
2022-11-20T12:13:32.137Z,0.71
2022-11-20T12:14:32.183Z,0.72
2022-11-20T12:15:32.206Z,0.72
2022-11-20T12:16:32.222Z,0.7
2022-11-20T12:17:32.256Z,0.66
2022-11-20T12:18:32.300Z,0.67
2022-11-20T12:19:32.315Z,0.66
2022-11-20T12:20:32.349Z,0.66
2022-11-20T12:21:32.380Z,0.67
2022-11-20T12:22:32.411Z,0.65
2022-11-20T12:23:32.455Z,0.64
2022-11-20T12:24:32.476Z,0.65
2022-11-20T12:25:32.509Z,0.66
2022-11-20T12:26:32.547Z,0.67
2022-11-20T12:27:32.579Z,0.66
2022-11-20T12:28:32.618Z,0.63
2022-11-20T12:29:32.636Z,0.64
2022-11-20T12:30:32.691Z,0.67
2022-11-20T12:31:32.716Z,0.68
2022-11-20T12:32:32.751Z,0.69
2022-11-20T12:33:32.776Z,0.69
2022-11-20T12:34:32.798Z,0.68
2022-11-20T12:35:32.830Z,0.69
2022-11-20T12:36:32.859Z,0.69
2022-11-20T12:37:32.889Z,0.7
2022-11-20T12:38:32.948Z,0.69
2022-11-20T12:39:32.961Z,0.67
2022-11-20T12:40:32.987Z,0.68
2022-11-20T12:41:33.026Z,0.68
2022-11-20T12:42:33.036Z,0.68
2022-11-20T12:43:33.079Z,0.66
2022-11-20T12:44:33.091Z,0.65
2022-11-20T12:45:33.131Z,0.64
2022-11-20T12:46:33.173Z,0.64
2022-11-20T12:47:33.199Z,0.62
2022-11-20T12:48:33.235Z,0.62
2022-11-20T12:49:33.267Z,0.6
2022-11-20T12:50:42.828Z,0.59
2022-11-20T12:51:33.322Z,0.59
2022-11-20T12:52:33.351Z,0.59
2022-11-20T12:53:33.384Z,0.59
2022-11-20T12:54:33.426Z,0.57
2022-11-20T12:55:33.442Z,0.58
2022-11-20T12:56:33.473Z,0.56
2022-11-20T12:57:33.505Z,0.56
2022-11-20T12:58:33.538Z,0.6
2022-11-20T12:59:33.565Z,0.56
2022-11-20T13:00:33.587Z,0.59
2022-11-20T13:01:33.657Z,0.59
2022-11-20T13:02:33.662Z,0.6
2022-11-20T13:03:33.687Z,0.58
2022-11-20T13:04:33.723Z,0.53